| time (UTC) | temp C | wind direction | speed KPH | gust KPH | rain 1hr cm | rain 24hr cm | rain mn cm | humidity % | barometer mb |
| 20260510192015 | 16 | 68 | 6.4 | 19.3 | 0.00 | 0.00 | 0.00 | 53 | 1024.0 |
| 20260510191016 | 16 | 45 | 6.4 | 22.5 | 0.00 | 0.00 | 0.00 | 51 | 1024.1 |
| 20260510190015 | 15 | 68 | 4.8 | 17.7 | 0.00 | 0.00 | 0.00 | 52 | 1023.4 |
| 20260510185015 | 15 | 68 | 8.0 | 24.1 | 0.00 | 0.00 | 0.00 | 52 | 1022.6 |
| 20260510184015 | 16 | 45 | 8.0 | 25.7 | 0.00 | 0.00 | 0.00 | 47 | 1022.8 |
| 20260510183016 | 16 | 45 | 6.4 | 19.3 | 0.00 | 0.00 | 0.00 | 46 | 1022.7 |
| 20260510182017 | 17 | 45 | 6.4 | 20.9 | 0.00 | 0.00 | 0.00 | 44 | 1023.7 |
| 20260510181017 | 18 | 45 | 11.3 | 24.1 | 0.00 | 0.00 | 0.00 | 40 | 1024.1 |
| 20260510180017 | 20 | 45 | 9.7 | 25.7 | 0.00 | 0.00 | 0.00 | 40 | 1025.0 |
| 20260510175057 | 20 | 45 | 8.0 | 20.9 | 0.00 | 0.00 | 0.00 | 40 | 1025.3 |
| 20260510174018 | 19 | 23 | 9.7 | 22.5 | 0.00 | 0.00 | 0.00 | 42 | 1024.9 |
| 20260510173017 | 17 | 45 | 4.8 | 16.1 | 0.00 | 0.00 | 0.00 | 43 | 1023.7 |
| 20260510172017 | 18 | 45 | 8.0 | 20.9 | 0.00 | 0.00 | 0.00 | 40 | 1023.8 |
| 20260510171017 | 20 | 45 | 9.7 | 30.6 | 0.00 | 0.00 | 0.00 | 39 | 1024.5 |
| 20260510170017 | 20 | 45 | 8.0 | 24.1 | 0.00 | 0.00 | 0.00 | 39 | 1024.4 |
| 20260510165017 | 19 | 45 | 11.3 | 27.4 | 0.00 | 0.00 | 0.00 | 39 | 1023.8 |
| 20260510164017 | 19 | 45 | 11.3 | 32.2 | 0.00 | 0.00 | 0.00 | 40 | 1023.6 |
| 20260510163017 | 20 | 45 | 8.0 | 22.5 | 0.00 | 0.00 | 0.00 | 41 | 1023.6 |
| 20260510162017 | 18 | 23 | 9.7 | 24.1 | 0.00 | 0.00 | 0.00 | 41 | 1023.5 |
| 20260510161017 | 18 | 45 | 8.0 | 22.5 | 0.00 | 0.00 | 0.00 | 42 | 1023.5 |
| 20260510160017 | 18 | 45 | 9.7 | 24.1 | 0.00 | 0.00 | 0.00 | 41 | 1023.4 |
| 20260510155017 | 17 | 45 | 9.7 | 25.7 | 0.00 | 0.00 | 0.00 | 42 | 1023.9 |
| 20260510154017 | 17 | 45 | 9.7 | 27.4 | 0.00 | 0.00 | 0.00 | 41 | 1023.7 |
| 20260510153017 | 17 | 45 | 8.0 | 22.5 | 0.00 | 0.00 | 0.00 | 41 | 1023.6 |
| 20260510152017 | 17 | 45 | 9.7 | 24.1 | 0.00 | 0.00 | 0.00 | 41 | 1023.9 |
| 20260510151017 | 17 | 45 | 9.7 | 29.0 | 0.00 | 0.00 | 0.00 | 40 | 1023.6 |
| 20260510150017 | 17 | 45 | 6.4 | 17.7 | 0.00 | 0.00 | 0.00 | 39 | 1023.0 |
| 20260510145017 | 16 | 68 | 1.6 | 9.7 | 0.00 | 0.00 | 0.00 | 40 | 1023.5 |
| 20260510144017 | 16 | 45 | 3.2 | 14.5 | 0.00 | 0.00 | 0.00 | 39 | 1023.4 |
| 20260510143017 | 16 | 45 | 3.2 | 14.5 | 0.00 | 0.00 | 0.00 | 39 | 1023.4 |
| 20260510142017 | 16 | 45 | 3.2 | 14.5 | 0.00 | 0.00 | 0.00 | 38 | 1024.3 |
| 20260510141017 | 16 | 23 | 4.8 | 16.1 | 0.00 | 0.00 | 0.00 | 36 | 1024.4 |
| 20260510140037 | 17 | 45 | 9.7 | 22.5 | 0.00 | 0.00 | 0.00 | 35 | 1024.8 |
| 20260510135017 | 17 | 45 | 8.0 | 19.3 | 0.00 | 0.00 | 0.00 | 36 | 1025.8 |
| 20260510134017 | 15 | 23 | 3.2 | 8.0 | 0.00 | 0.00 | 0.00 | 37 | 1025.3 |
| 20260510133017 | 15 | 45 | 4.8 | 20.9 | 0.00 | 0.00 | 0.00 | 37 | 1024.2 |
| 20260510132017 | 15 | 45 | 4.8 | 16.1 | 0.00 | 0.00 | 0.00 | 35 | 1024.3 |
| 20260510131017 | 14 | 23 | 8.0 | 24.1 | 0.00 | 0.00 | 0.00 | 34 | 1024.2 |
| 20260510130037 | 13 | 45 | 1.6 | 9.7 | 0.00 | 0.00 | 0.00 | 35 | 1023.3 |
| 20260510125017 | 13 | 45 | 4.8 | 14.5 | 0.00 | 0.00 | 0.00 | 34 | 1022.6 |
| 20260510124017 | 14 | 68 | 4.8 | 16.1 | 0.00 | 0.00 | 0.00 | 33 | 1023.0 |
| 20260510123016 | 13 | 248 | 3.2 | 16.1 | 0.00 | 0.00 | 0.00 | 34 | 1022.3 |
| 20260510122016 | 13 | 248 | 3.2 | 9.7 | 0.00 | 0.00 | 0.00 | 34 | 1022.4 |
| 20260510121016 | 13 | 293 | 3.2 | 11.3 | 0.00 | 0.00 | 0.00 | 34 | 1022.4 |
| 20260510120037 | 15 | 293 | 4.8 | 9.7 | 0.00 | 0.00 | 0.00 | 32 | 1022.8 |
| 20260510115016 | 16 | 270 | 6.4 | 16.1 | 0.00 | 0.00 | 0.00 | 29 | 1023.6 |
| 20260510114016 | 16 | 293 | 6.4 | 12.9 | 0.00 | 0.00 | 0.00 | 30 | 1023.5 |
| 20260510113037 | 15 | 293 | 6.4 | 17.7 | 0.00 | 0.00 | 0.00 | 31 | 1023.1 |
| 20260510112017 | 14 | 293 | 4.8 | 12.9 | 0.00 | 0.00 | 0.00 | 33 | 1022.6 |
| 20260510111016 | 12 | 270 | 1.6 | 8.0 | 0.00 | 0.00 | 0.00 | 38 | 1021.8 |
| 20260510110036 | 10 | 293 | 1.6 | 4.8 | 0.00 | 0.00 | 0.00 | 40 | 1021.1 |
| 20260510105016 | 13 | 270 | 3.2 | 16.1 | 0.00 | 0.00 | 0.00 | 34 | 1022.4 |
| 20260510104036 | 13 | 270 | 4.8 | 9.7 | 0.00 | 0.00 | 0.00 | 35 | 1022.2 |
| 20260510103016 | 12 | 270 | 3.2 | 9.7 | 0.00 | 0.00 | 0.00 | 36 | 1021.4 |
| 20260510102016 | 12 | 270 | 3.2 | 8.0 | 0.00 | 0.00 | 0.00 | 35 | 1021.8 |
| 20260510101016 | 13 | 270 | 4.8 | 11.3 | 0.00 | 0.00 | 0.00 | 34 | 1022.1 |
| 20260510100016 | 13 | 270 | 4.8 | 14.5 | 0.00 | 0.00 | 0.00 | 33 | 1022.1 |
| 20260510095016 | 13 | 270 | 8.0 | 17.7 | 0.00 | 0.00 | 0.00 | 33 | 1022.1 |
| 20260510094016 | 12 | 248 | 4.8 | 11.3 | 0.00 | 0.00 | 0.00 | 34 | 1021.5 |
| 20260510093016 | 12 | 270 | 4.8 | 16.1 | 0.00 | 0.00 | 0.00 | 35 | 1021.5 |
| 20260510092016 | 12 | 248 | 4.8 | 9.7 | 0.00 | 0.00 | 0.00 | 35 | 1021.6 |
| 20260510091036 | 12 | 248 | 6.4 | 14.5 | 0.00 | 0.00 | 0.00 | 34 | 1021.9 |
| 20260510090016 | 13 | 248 | 6.4 | 16.1 | 0.00 | 0.00 | 0.00 | 34 | 1021.9 |
| 20260510085056 | 13 | 248 | 6.4 | 16.1 | 0.00 | 0.00 | 0.00 | 33 | 1022.4 |
| 20260510084016 | 11 | 248 | 4.8 | 9.7 | 0.00 | 0.00 | 0.00 | 36 | 1021.5 |
| 20260510083016 | 12 | 248 | 4.8 | 14.5 | 0.00 | 0.00 | 0.00 | 35 | 1021.8 |
| 20260510082036 | 12 | 248 | 4.8 | 12.9 | 0.00 | 0.00 | 0.00 | 35 | 1021.1 |
| 20260510081016 | 12 | 270 | 3.2 | 8.0 | 0.00 | 0.00 | 0.00 | 35 | 1021.2 |
| 20260510080036 | 12 | 248 | 4.8 | 9.7 | 0.00 | 0.00 | 0.00 | 34 | 1021.2 |
| 20260510075016 | 13 | 248 | 6.4 | 16.1 | 0.00 | 0.00 | 0.00 | 33 | 1021.2 |
| 20260510074016 | 14 | 270 | 4.8 | 11.3 | 0.00 | 0.00 | 0.00 | 30 | 1022.1 |
| 20260510073016 | 15 | 293 | 4.8 | 11.3 | 0.00 | 0.00 | 0.00 | 29 | 1022.3 |
| 20260510072016 | 12 | 270 | 4.8 | 11.3 | 0.00 | 0.00 | 0.00 | 33 | 1021.6 |
| 20260510071016 | 11 | 248 | 4.8 | 11.3 | 0.00 | 0.00 | 0.00 | 38 | 1020.5 |
| 20260510070016 | 11 | 270 | 4.8 | 9.7 | 0.00 | 0.00 | 0.00 | 36 | 1020.8 |
| 20260510065016 | 12 | 293 | 3.2 | 8.0 | 0.00 | 0.00 | 0.00 | 33 | 1021.3 |
| 20260510064016 | 12 | 270 | 3.2 | 9.7 | 0.00 | 0.00 | 0.00 | 34 | 1021.4 |
| 20260510063036 | 11 | 248 | 1.6 | 6.4 | 0.00 | 0.00 | 0.00 | 36 | 1020.8 |
| 20260510062015 | 11 | 225 | 1.6 | 6.4 | 0.00 | 0.00 | 0.00 | 36 | 1021.3 |
| 20260510061016 | 11 | 0.0 | 4.8 | 0.00 | 0.00 | 0.00 | 36 | 1021.5 | |
| 20260510060016 | 12 | 248 | 1.6 | 6.4 | 0.00 | 0.00 | 0.00 | 35 | 1022.0 |
| 20260510055018 | 12 | 248 | 1.6 | 8.0 | 0.00 | 0.00 | 0.00 | 34 | 1022.0 |
| 20260510054017 | 13 | 248 | 3.2 | 16.1 | 0.00 | 0.00 | 0.00 | 33 | 1022.4 |
| 20260510053037 | 14 | 248 | 4.8 | 17.7 | 0.00 | 0.00 | 0.00 | 32 | 1022.5 |
| 20260510052018 | 14 | 248 | 4.8 | 14.5 | 0.00 | 0.00 | 0.00 | 32 | 1022.1 |
| 20260510051017 | 14 | 248 | 4.8 | 11.3 | 0.00 | 0.00 | 0.00 | 32 | 1022.2 |
| 20260510050017 | 13 | 248 | 3.2 | 12.9 | 0.00 | 0.00 | 0.00 | 33 | 1022.3 |
| 20260510045017 | 14 | 248 | 3.2 | 11.3 | 0.00 | 0.00 | 0.00 | 33 | 1022.3 |
| 20260510044017 | 13 | 248 | 3.2 | 9.7 | 0.00 | 0.00 | 0.00 | 33 | 1022.3 |
| 20260510043037 | 13 | 270 | 1.6 | 8.0 | 0.00 | 0.00 | 0.00 | 33 | 1022.5 |
| 20260510042018 | 13 | 248 | 1.6 | 6.4 | 0.00 | 0.00 | 0.00 | 34 | 1021.9 |
| 20260510041017 | 13 | 248 | 1.6 | 8.0 | 0.00 | 0.00 | 0.00 | 34 | 1022.4 |
| 20260510040017 | 13 | 270 | 1.6 | 8.0 | 0.00 | 0.00 | 0.00 | 33 | 1022.3 |
| 20260510035017 | 13 | 0.0 | 4.8 | 0.00 | 0.00 | 0.00 | 34 | 1021.4 | |
| 20260510034017 | 13 | 0.0 | 4.8 | 0.00 | 0.00 | 0.00 | 34 | 1021.8 | |
| 20260510033017 | 14 | 0.0 | 4.8 | 0.00 | 0.00 | 0.00 | 33 | 1021.6 | |
| 20260510032017 | 15 | 248 | 1.6 | 6.4 | 0.00 | 0.00 | 0.00 | 32 | 1021.2 |
| 20260510031037 | 15 | 225 | 1.6 | 8.0 | 0.00 | 0.00 | 0.00 | 32 | 1021.0 |
| 20260510030017 | 15 | 0.0 | 3.2 | 0.00 | 0.00 | 0.00 | 30 | 1021.0 | |
| 20260510025017 | 16 | 0.0 | 3.2 | 0.00 | 0.00 | 0.00 | 29 | 1019.9 | |
| 20260510024017 | 17 | 0.0 | 3.2 | 0.00 | 0.00 | 0.00 | 28 | 1020.3 | |
| 20260510023017 | 18 | 0.0 | 3.2 | 0.00 | 0.00 | 0.00 | 26 | 1020.7 | |
| 20260510022017 | 18 | 0.0 | 3.2 | 0.00 | 0.00 | 0.00 | 26 | 1018.8 | |
| 20260510021017 | 19 | 203 | 1.6 | 6.4 | 0.00 | 0.00 | 0.00 | 25 | 1019.0 |
| 20260510020057 | 20 | 203 | 1.6 | 6.4 | 0.00 | 0.00 | 0.00 | 24 | 1019.5 |
| 20260510015017 | 20 | 203 | 1.6 | 9.7 | 0.00 | 0.00 | 0.00 | 23 | 1019.0 |
| 20260510014017 | 21 | 0.0 | 6.4 | 0.00 | 0.00 | 0.00 | 23 | 1019.0 | |
| 20260510013017 | 22 | 225 | 1.6 | 9.7 | 0.00 | 0.00 | 0.00 | 21 | 1019.3 |
| 20260510012017 | 23 | 270 | 4.8 | 14.5 | 0.00 | 0.00 | 0.00 | 21 | 1019.0 |
| 20260510011017 | 23 | 248 | 4.8 | 16.1 | 0.00 | 0.00 | 0.00 | 20 | 1019.4 |
| 20260510010017 | 23 | 270 | 6.4 | 19.3 | 0.00 | 0.00 | 0.00 | 20 | 1019.4 |
| 20260510005017 | 24 | 270 | 8.0 | 22.5 | 0.00 | 0.00 | 0.00 | 19 | 1018.4 |
| 20260510004017 | 25 | 270 | 8.0 | 20.9 | 0.00 | 0.00 | 0.00 | 19 | 1018.5 |
| 20260510003017 | 25 | 270 | 8.0 | 19.3 | 0.00 | 0.00 | 0.00 | 19 | 1019.1 |
| 20260510002137 | 25 | 270 | 8.0 | 25.7 | 0.00 | 0.00 | 0.00 | 19 | 1018.2 |
| 20260510001016 | 25 | 270 | 8.0 | 25.7 | 0.00 | 0.00 | 0.00 | 18 | 1018.2 |
| 20260510000057 | 25 | 270 | 9.7 | 22.5 | 0.00 | 0.00 | 0.00 | 19 | 1018.3 |
| 20260509235016 | 25 | 315 | 9.7 | 24.1 | 0.00 | 0.00 | 0.00 | 18 | 1019.1 |
| 20260509234016 | 25 | 270 | 9.7 | 22.5 | 0.00 | 0.00 | 0.00 | 18 | 1019.2 |
| 20260509233017 | 25 | 315 | 9.7 | 20.9 | 0.00 | 0.00 | 0.00 | 18 | 1019.0 |
| 20260509232016 | 26 | 270 | 8.0 | 24.1 | 0.00 | 0.00 | 0.00 | 18 | 1019.8 |
| 20260509231016 | 26 | 270 | 12.9 | 24.1 | 0.00 | 0.00 | 0.00 | 17 | 1019.5 |
| 20260509230016 | 26 | 270 | 12.9 | 24.1 | 0.00 | 0.00 | 0.00 | 17 | 1019.4 |
| 20260509225016 | 26 | 293 | 11.3 | 20.9 | 0.00 | 0.00 | 0.00 | 17 | 1019.4 |
| 20260509224016 | 26 | 270 | 8.0 | 24.1 | 0.00 | 0.00 | 0.00 | 17 | 1019.6 |
| 20260509223016 | 26 | 270 | 11.3 | 27.4 | 0.00 | 0.00 | 0.00 | 18 | 1019.4 |
| 20260509222016 | 26 | 270 | 11.3 | 25.7 | 0.00 | 0.00 | 0.00 | 17 | 1018.9 |
| 20260509221016 | 27 | 248 | 9.7 | 25.7 | 0.00 | 0.00 | 0.00 | 18 | 1018.9 |
| 20260509220036 | 26 | 293 | 11.3 | 24.1 | 0.00 | 0.00 | 0.00 | 17 | 1018.8 |
| 20260509215016 | 26 | 248 | 11.3 | 24.1 | 0.00 | 0.00 | 0.00 | 18 | 1018.9 |
| 20260509214056 | 27 | 248 | 11.3 | 24.1 | 0.00 | 0.00 | 0.00 | 18 | 1019.1 |
| 20260509213056 | 26 | 270 | 12.9 | 27.4 | 0.00 | 0.00 | 0.00 | 18 | 1019.2 |
| 20260509212016 | 27 | 225 | 9.7 | 25.7 | 0.00 | 0.00 | 0.00 | 18 | 1019.2 |
| 20260509211016 | 27 | 315 | 8.0 | 27.4 | 0.00 | 0.00 | 0.00 | 18 | 1019.9 |
| 20260509210016 | 27 | 225 | 11.3 | 25.7 | 0.00 | 0.00 | 0.00 | 18 | 1020.1 |
| 20260509205016 | 27 | 248 | 14.5 | 29.0 | 0.00 | 0.00 | 0.00 | 18 | 1020.1 |
| 20260509204016 | 27 | 270 | 11.3 | 29.0 | 0.00 | 0.00 | 0.00 | 18 | 1020.3 |
| 20260509203016 | 27 | 248 | 11.3 | 24.1 | 0.00 | 0.00 | 0.00 | 18 | 1020.2 |
| 20260509202016 | 27 | 225 | 9.7 | 24.1 | 0.00 | 0.00 | 0.00 | 19 | 1020.5 |
| 20260509201016 | 26 | 270 | 8.0 | 24.1 | 0.00 | 0.00 | 0.00 | 20 | 1020.1 |
| 20260509200016 | 25 | 0 | 6.4 | 25.7 | 0.00 | 0.00 | 0.00 | 19 | 1020.0 |
| 20260509195016 | 25 | 315 | 11.3 | 22.5 | 0.00 | 0.00 | 0.00 | 18 | 1020.2 |
| 20260509194016 | 25 | 338 | 6.4 | 20.9 | 0.00 | 0.00 | 0.00 | 19 | 1020.3 |
| 20260509193016 | 25 | 315 | 4.8 | 19.3 | 0.00 | 0.00 | 0.00 | 19 | 1019.8 |